Etusivu
METAR-TAF:

METAR-TAF

Lentoasemat :

Arbil, Irak

Leveyspiiri: 36-14-15N, Pituuspiiri: 43-57-47E, korkeus merenpinnasta: 415 m

Tämänhetkinen sää

Tämä raportti tehtiin 1 tunti ja 0 minuuttia sitten, kello 17.00 UTC
Tuuli 9 kn lännestä
Lämpötila 30°C
Kosteus 15%
Ilmanpaine 1010 hPa
Näkyvyys: 8000 m

METAR: ORER 291700Z 27009KT 8000 NSC 30/01 Q1010 NOSIG

Aika: 21:00 (18:00 UTC)

Sääennuste

Tämä raportti tehtiin 1 tunti ja 0 minuuttia sitten, kello 17.00 UTC
Ennuste voimassa 29. päivästä klo 18 UTC - 30. päivään klo 18 UTC
Tuuli 10 kn lännestä
Näkyvyys: 8000 m

TAF: ORER 291700Z 2918/3018 27010KT 8000 NSC

Säähavainnot ja -ennusteet yli 4000 lentoasemalta (METAR- ja TAF-raportit).

Käytössä olevat sääasemat on merkitty karttaan keltaisilla ja punaisilla pisteillä.

Aseta hiiri pisteen päälle nähdäksesi sääaseman nimen.

Klikkaa sitten nähdäksesi säähavainnot ja -ennusteet.

Kartan vaihtaminen: klikkaa mustalla rastilla varustettuja vihreitä pisteitä, niin voit zoomata sisään; viivalla varustettua vihreää pistettä, niin voit zoomata ulos tai vihreitä nuolia, niin pääset viereisille kartoille.


METAR-TAF: